sensor_id;sensor_type;location;lat;lon;timestamp;temperature;humidity
13561;DHT22;6852;51.686;5.314;2022-08-19T00:01:32;19.90;99.90
13561;DHT22;6852;51.686;5.314;2022-08-19T00:04:06;20.00;99.90
13561;DHT22;6852;51.686;5.314;2022-08-19T00:06:34;19.80;99.90
13561;DHT22;6852;51.686;5.314;2022-08-19T00:09:04;19.60;99.90
13561;DHT22;6852;51.686;5.314;2022-08-19T00:11:32;19.50;99.90
13561;DHT22;6852;51.686;5.314;2022-08-19T00:14:03;19.30;99.90
13561;DHT22;6852;51.686;5.314;2022-08-19T00:16:31;19.40;99.90
13561;DHT22;6852;51.686;5.314;2022-08-19T00:18:58;19.50;99.90
13561;DHT22;6852;51.686;5.314;2022-08-19T00:21:26;19.60;99.90
13561;DHT22;6852;51.686;5.314;2022-08-19T00:23:57;19.60;99.90
13561;DHT22;6852;51.686;5.314;2022-08-19T00:26:26;19.70;99.90
13561;DHT22;6852;51.686;5.314;2022-08-19T00:28:54;19.60;99.90
13561;DHT22;6852;51.686;5.314;2022-08-19T00:31:21;19.60;99.90
13561;DHT22;6852;51.686;5.314;2022-08-19T00:33:48;19.60;99.90
13561;DHT22;6852;51.686;5.314;2022-08-19T00:36:17;19.50;99.90
13561;DHT22;6852;51.686;5.314;2022-08-19T00:38:44;19.40;99.90
13561;DHT22;6852;51.686;5.314;2022-08-19T00:41:16;19.40;99.90
13561;DHT22;6852;51.686;5.314;2022-08-19T00:44:19;19.40;99.90
13561;DHT22;6852;51.686;5.314;2022-08-19T00:46:45;19.30;99.90
13561;DHT22;6852;51.686;5.314;2022-08-19T00:49:45;19.20;99.90
13561;DHT22;6852;51.686;5.314;2022-08-19T00:52:15;19.30;99.90
13561;DHT22;6852;51.686;5.314;2022-08-19T00:54:44;19.30;99.90
13561;DHT22;6852;51.686;5.314;2022-08-19T00:57:22;19.30;99.90
13561;DHT22;6852;51.686;5.314;2022-08-19T00:59:52;19.20;99.90
13561;DHT22;6852;51.686;5.314;2022-08-19T01:02:29;19.20;99.90
13561;DHT22;6852;51.686;5.314;2022-08-19T01:04:56;19.10;99.90
13561;DHT22;6852;51.686;5.314;2022-08-19T01:07:23;18.90;99.90
13561;DHT22;6852;51.686;5.314;2022-08-19T01:09:51;18.80;99.90
13561;DHT22;6852;51.686;5.314;2022-08-19T01:12:19;18.70;99.90
13561;DHT22;6852;51.686;5.314;2022-08-19T01:14:47;18.60;99.90
13561;DHT22;6852;51.686;5.314;2022-08-19T01:17:15;18.50;99.90
13561;DHT22;6852;51.686;5.314;2022-08-19T01:19:43;18.40;99.90
13561;DHT22;6852;51.686;5.314;2022-08-19T01:24:54;18.70;99.90
13561;DHT22;6852;51.686;5.314;2022-08-19T01:27:22;18.70;99.90
13561;DHT22;6852;51.686;5.314;2022-08-19T01:29:50;18.90;99.90
13561;DHT22;6852;51.686;5.314;2022-08-19T01:32:17;19.00;99.90
13561;DHT22;6852;51.686;5.314;2022-08-19T01:35:00;19.10;99.90
13561;DHT22;6852;51.686;5.314;2022-08-19T01:37:28;19.10;99.90
13561;DHT22;6852;51.686;5.314;2022-08-19T01:39:57;19.10;99.90
13561;DHT22;6852;51.686;5.314;2022-08-19T01:42:24;19.20;99.90
13561;DHT22;6852;51.686;5.314;2022-08-19T01:44:56;19.20;99.90
13561;DHT22;6852;51.686;5.314;2022-08-19T01:47:23;19.30;99.90
13561;DHT22;6852;51.686;5.314;2022-08-19T01:49:50;19.30;99.90
13561;DHT22;6852;51.686;5.314;2022-08-19T01:52:16;19.20;99.90
13561;DHT22;6852;51.686;5.314;2022-08-19T01:54:43;19.20;99.90
13561;DHT22;6852;51.686;5.314;2022-08-19T01:57:12;19.10;99.90
13561;DHT22;6852;51.686;5.314;2022-08-19T01:59:40;19.10;99.90
13561;DHT22;6852;51.686;5.314;2022-08-19T02:02:09;19.00;99.90
13561;DHT22;6852;51.686;5.314;2022-08-19T02:04:36;18.80;99.90
13561;DHT22;6852;51.686;5.314;2022-08-19T02:07:05;18.70;99.90
13561;DHT22;6852;51.686;5.314;2022-08-19T02:09:32;18.70;99.90
13561;DHT22;6852;51.686;5.314;2022-08-19T02:11:59;18.70;99.90
13561;DHT22;6852;51.686;5.314;2022-08-19T02:14:26;18.80;99.90
13561;DHT22;6852;51.686;5.314;2022-08-19T02:16:53;18.70;99.90
13561;DHT22;6852;51.686;5.314;2022-08-19T02:19:20;18.60;99.90
13561;DHT22;6852;51.686;5.314;2022-08-19T02:21:47;18.70;99.90
13561;DHT22;6852;51.686;5.314;2022-08-19T02:24:14;18.80;99.90
13561;DHT22;6852;51.686;5.314;2022-08-19T02:26:40;18.80;99.90
13561;DHT22;6852;51.686;5.314;2022-08-19T02:29:07;18.90;99.90
13561;DHT22;6852;51.686;5.314;2022-08-19T02:31:34;18.90;99.90
13561;DHT22;6852;51.686;5.314;2022-08-19T02:34:01;19.00;99.90
13561;DHT22;6852;51.686;5.314;2022-08-19T02:36:28;18.90;99.90
13561;DHT22;6852;51.686;5.314;2022-08-19T02:38:56;19.00;99.90
13561;DHT22;6852;51.686;5.314;2022-08-19T02:41:27;19.00;99.90
13561;DHT22;6852;51.686;5.314;2022-08-19T02:43:56;18.90;99.90
13561;DHT22;6852;51.686;5.314;2022-08-19T02:46:46;18.90;99.90
13561;DHT22;6852;51.686;5.314;2022-08-19T02:49:13;18.70;99.90
13561;DHT22;6852;51.686;5.314;2022-08-19T02:51:44;18.70;99.90
13561;DHT22;6852;51.686;5.314;2022-08-19T02:54:12;18.70;99.90
13561;DHT22;6852;51.686;5.314;2022-08-19T02:56:40;18.70;99.90
13561;DHT22;6852;51.686;5.314;2022-08-19T02:59:07;18.60;99.90
13561;DHT22;6852;51.686;5.314;2022-08-19T03:01:39;18.80;99.90
13561;DHT22;6852;51.686;5.314;2022-08-19T03:04:08;18.70;99.90
13561;DHT22;6852;51.686;5.314;2022-08-19T03:06:38;18.50;99.90
13561;DHT22;6852;51.686;5.314;2022-08-19T03:09:05;18.50;99.90
13561;DHT22;6852;51.686;5.314;2022-08-19T03:11:32;18.60;99.90
13561;DHT22;6852;51.686;5.314;2022-08-19T03:13:59;18.50;99.90
13561;DHT22;6852;51.686;5.314;2022-08-19T03:16:28;18.60;99.90
13561;DHT22;6852;51.686;5.314;2022-08-19T03:18:59;18.70;99.90
13561;DHT22;6852;51.686;5.314;2022-08-19T03:21:29;18.70;99.90
13561;DHT22;6852;51.686;5.314;2022-08-19T03:23:57;18.70;99.90
13561;DHT22;6852;51.686;5.314;2022-08-19T03:26:25;18.80;99.90
13561;DHT22;6852;51.686;5.314;2022-08-19T03:28:52;18.90;99.90
13561;DHT22;6852;51.686;5.314;2022-08-19T03:31:26;18.60;99.90
13561;DHT22;6852;51.686;5.314;2022-08-19T03:34:16;18.40;99.90
13561;DHT22;6852;51.686;5.314;2022-08-19T03:36:45;18.30;99.90
13561;DHT22;6852;51.686;5.314;2022-08-19T03:39:13;18.20;99.90
13561;DHT22;6852;51.686;5.314;2022-08-19T03:41:42;18.30;99.90
13561;DHT22;6852;51.686;5.314;2022-08-19T03:44:13;18.40;99.90
13561;DHT22;6852;51.686;5.314;2022-08-19T03:46:45;18.50;99.90
13561;DHT22;6852;51.686;5.314;2022-08-19T03:49:12;18.60;99.90
13561;DHT22;6852;51.686;5.314;2022-08-19T03:51:41;18.50;99.90
13561;DHT22;6852;51.686;5.314;2022-08-19T03:54:12;18.50;99.90
13561;DHT22;6852;51.686;5.314;2022-08-19T03:56:41;18.50;99.90
13561;DHT22;6852;51.686;5.314;2022-08-19T03:59:11;18.40;99.90
13561;DHT22;6852;51.686;5.314;2022-08-19T04:01:39;18.30;99.90
13561;DHT22;6852;51.686;5.314;2022-08-19T04:04:07;18.40;99.90
13561;DHT22;6852;51.686;5.314;2022-08-19T04:06:36;18.50;99.90
13561;DHT22;6852;51.686;5.314;2022-08-19T04:09:08;18.40;99.90
13561;DHT22;6852;51.686;5.314;2022-08-19T04:11:38;18.50;99.90
13561;DHT22;6852;51.686;5.314;2022-08-19T04:14:20;18.50;99.90
13561;DHT22;6852;51.686;5.314;2022-08-19T04:16:48;18.40;99.90
13561;DHT22;6852;51.686;5.314;2022-08-19T04:19:16;18.50;99.90
13561;DHT22;6852;51.686;5.314;2022-08-19T04:21:46;18.40;99.90
13561;DHT22;6852;51.686;5.314;2022-08-19T04:24:14;18.50;99.90
13561;DHT22;6852;51.686;5.314;2022-08-19T04:26:41;18.50;99.90
13561;DHT22;6852;51.686;5.314;2022-08-19T04:29:14;18.50;99.90
13561;DHT22;6852;51.686;5.314;2022-08-19T04:31:42;18.60;99.90
13561;DHT22;6852;51.686;5.314;2022-08-19T04:34:13;18.50;99.90
13561;DHT22;6852;51.686;5.314;2022-08-19T04:36:41;18.50;99.90
13561;DHT22;6852;51.686;5.314;2022-08-19T04:39:12;18.50;99.90
13561;DHT22;6852;51.686;5.314;2022-08-19T04:41:39;18.50;99.90
13561;DHT22;6852;51.686;5.314;2022-08-19T04:44:25;18.50;99.90
13561;DHT22;6852;51.686;5.314;2022-08-19T04:46:53;18.40;99.90
13561;DHT22;6852;51.686;5.314;2022-08-19T04:49:21;18.40;99.90
13561;DHT22;6852;51.686;5.314;2022-08-19T04:51:50;18.40;99.90
13561;DHT22;6852;51.686;5.314;2022-08-19T04:54:18;18.40;99.90
13561;DHT22;6852;51.686;5.314;2022-08-19T04:57:06;18.40;99.90
13561;DHT22;6852;51.686;5.314;2022-08-19T04:59:36;18.10;99.90
13561;DHT22;6852;51.686;5.314;2022-08-19T05:02:04;18.10;99.90
13561;DHT22;6852;51.686;5.314;2022-08-19T05:04:31;18.20;99.90
13561;DHT22;6852;51.686;5.314;2022-08-19T05:07:00;18.20;99.90
13561;DHT22;6852;51.686;5.314;2022-08-19T05:09:29;18.10;99.90
13561;DHT22;6852;51.686;5.314;2022-08-19T05:12:17;18.00;99.90
13561;DHT22;6852;51.686;5.314;2022-08-19T05:14:45;18.10;99.90
13561;DHT22;6852;51.686;5.314;2022-08-19T05:17:14;18.20;99.90
13561;DHT22;6852;51.686;5.314;2022-08-19T05:20:02;18.10;99.90
13561;DHT22;6852;51.686;5.314;2022-08-19T05:22:47;18.10;99.90
13561;DHT22;6852;51.686;5.314;2022-08-19T05:25:19;18.20;99.90
13561;DHT22;6852;51.686;5.314;2022-08-19T05:27:47;18.20;99.90
13561;DHT22;6852;51.686;5.314;2022-08-19T05:30:15;18.20;99.90
13561;DHT22;6852;51.686;5.314;2022-08-19T05:32:42;18.10;99.90
13561;DHT22;6852;51.686;5.314;2022-08-19T05:35:09;18.10;99.90
13561;DHT22;6852;51.686;5.314;2022-08-19T05:37:36;17.90;99.90
13561;DHT22;6852;51.686;5.314;2022-08-19T05:40:04;17.90;99.90
13561;DHT22;6852;51.686;5.314;2022-08-19T05:42:31;17.90;99.90
13561;DHT22;6852;51.686;5.314;2022-08-19T05:44:58;17.80;99.90
13561;DHT22;6852;51.686;5.314;2022-08-19T05:47:25;18.00;99.90
13561;DHT22;6852;51.686;5.314;2022-08-19T05:49:52;18.10;99.90
13561;DHT22;6852;51.686;5.314;2022-08-19T05:52:19;18.00;99.90
13561;DHT22;6852;51.686;5.314;2022-08-19T05:54:52;18.10;99.90
13561;DHT22;6852;51.686;5.314;2022-08-19T05:57:22;18.30;99.90
13561;DHT22;6852;51.686;5.314;2022-08-19T05:59:50;18.30;99.90
13561;DHT22;6852;51.686;5.314;2022-08-19T06:02:23;18.30;99.90
13561;DHT22;6852;51.686;5.314;2022-08-19T06:04:51;18.20;99.90
13561;DHT22;6852;51.686;5.314;2022-08-19T06:07:18;18.40;99.90
13561;DHT22;6852;51.686;5.314;2022-08-19T06:09:46;18.20;99.90
13561;DHT22;6852;51.686;5.314;2022-08-19T06:12:28;18.20;99.90
13561;DHT22;6852;51.686;5.314;2022-08-19T06:14:55;18.30;99.90
13561;DHT22;6852;51.686;5.314;2022-08-19T06:17:28;18.30;99.90
13561;DHT22;6852;51.686;5.314;2022-08-19T06:19:57;18.40;99.90
13561;DHT22;6852;51.686;5.314;2022-08-19T06:22:24;18.30;99.90
13561;DHT22;6852;51.686;5.314;2022-08-19T06:24:51;18.50;99.90
13561;DHT22;6852;51.686;5.314;2022-08-19T06:27:20;18.70;99.90
13561;DHT22;6852;51.686;5.314;2022-08-19T06:29:48;18.70;99.90
13561;DHT22;6852;51.686;5.314;2022-08-19T06:32:16;18.70;99.90
13561;DHT22;6852;51.686;5.314;2022-08-19T06:34:44;18.50;99.90
13561;DHT22;6852;51.686;5.314;2022-08-19T06:37:11;18.40;99.90
13561;DHT22;6852;51.686;5.314;2022-08-19T06:39:40;18.30;99.90
13561;DHT22;6852;51.686;5.314;2022-08-19T06:42:07;18.40;99.90
13561;DHT22;6852;51.686;5.314;2022-08-19T06:44:39;18.60;99.90
13561;DHT22;6852;51.686;5.314;2022-08-19T06:47:14;18.60;99.90
13561;DHT22;6852;51.686;5.314;2022-08-19T06:49:55;18.60;99.90
13561;DHT22;6852;51.686;5.314;2022-08-19T06:52:33;18.60;99.90
13561;DHT22;6852;51.686;5.314;2022-08-19T06:55:03;18.50;99.90
13561;DHT22;6852;51.686;5.314;2022-08-19T06:57:32;18.50;99.90
13561;DHT22;6852;51.686;5.314;2022-08-19T06:59:59;18.40;99.90
13561;DHT22;6852;51.686;5.314;2022-08-19T07:02:26;18.30;99.90
13561;DHT22;6852;51.686;5.314;2022-08-19T07:04:53;18.20;99.90
13561;DHT22;6852;51.686;5.314;2022-08-19T07:07:21;18.20;99.90
13561;DHT22;6852;51.686;5.314;2022-08-19T07:09:50;18.20;99.90
13561;DHT22;6852;51.686;5.314;2022-08-19T07:12:27;18.20;99.90
13561;DHT22;6852;51.686;5.314;2022-08-19T07:14:57;18.20;99.90
13561;DHT22;6852;51.686;5.314;2022-08-19T07:17:24;18.30;99.90
13561;DHT22;6852;51.686;5.314;2022-08-19T07:19:52;18.50;99.90
13561;DHT22;6852;51.686;5.314;2022-08-19T07:22:20;18.30;99.90
13561;DHT22;6852;51.686;5.314;2022-08-19T07:24:50;18.30;99.90
13561;DHT22;6852;51.686;5.314;2022-08-19T07:27:18;18.40;99.90
13561;DHT22;6852;51.686;5.314;2022-08-19T07:29:52;18.40;99.90
13561;DHT22;6852;51.686;5.314;2022-08-19T07:32:23;18.20;99.90
13561;DHT22;6852;51.686;5.314;2022-08-19T07:34:53;18.10;99.90
13561;DHT22;6852;51.686;5.314;2022-08-19T07:37:23;18.20;99.90
13561;DHT22;6852;51.686;5.314;2022-08-19T07:39:56;18.20;99.90
13561;DHT22;6852;51.686;5.314;2022-08-19T07:42:23;18.40;99.90
13561;DHT22;6852;51.686;5.314;2022-08-19T07:44:50;18.40;99.90
13561;DHT22;6852;51.686;5.314;2022-08-19T07:47:17;18.40;99.90
13561;DHT22;6852;51.686;5.314;2022-08-19T07:50:08;18.40;99.90
13561;DHT22;6852;51.686;5.314;2022-08-19T07:52:36;18.50;99.90
13561;DHT22;6852;51.686;5.314;2022-08-19T07:55:07;18.60;99.90
13561;DHT22;6852;51.686;5.314;2022-08-19T07:57:54;18.60;99.90
13561;DHT22;6852;51.686;5.314;2022-08-19T08:00:21;18.60;99.90
13561;DHT22;6852;51.686;5.314;2022-08-19T08:02:50;18.80;99.90
13561;DHT22;6852;51.686;5.314;2022-08-19T08:05:17;18.80;99.90
13561;DHT22;6852;51.686;5.314;2022-08-19T08:08:08;18.90;99.90
13561;DHT22;6852;51.686;5.314;2022-08-19T08:10:53;18.90;99.90
13561;DHT22;6852;51.686;5.314;2022-08-19T08:13:24;19.00;99.90
13561;DHT22;6852;51.686;5.314;2022-08-19T08:15:52;18.80;99.90
13561;DHT22;6852;51.686;5.314;2022-08-19T08:18:23;18.80;99.90
13561;DHT22;6852;51.686;5.314;2022-08-19T08:20:56;18.90;99.90
13561;DHT22;6852;51.686;5.314;2022-08-19T08:23:23;18.90;99.90
13561;DHT22;6852;51.686;5.314;2022-08-19T08:25:55;19.10;99.90
13561;DHT22;6852;51.686;5.314;2022-08-19T08:28:25;18.90;99.90
13561;DHT22;6852;51.686;5.314;2022-08-19T08:30:56;19.00;99.90
13561;DHT22;6852;51.686;5.314;2022-08-19T08:33:25;19.00;99.90
13561;DHT22;6852;51.686;5.314;2022-08-19T08:36:10;19.10;99.90
13561;DHT22;6852;51.686;5.314;2022-08-19T08:38:38;19.00;99.90
13561;DHT22;6852;51.686;5.314;2022-08-19T08:43:55;19.10;99.90
13561;DHT22;6852;51.686;5.314;2022-08-19T08:46:38;19.20;99.90
13561;DHT22;6852;51.686;5.314;2022-08-19T08:54:41;19.60;99.90
13561;DHT22;6852;51.686;5.314;2022-08-19T08:57:38;19.80;99.90
13561;DHT22;6852;51.686;5.314;2022-08-19T09:00:14;19.80;99.90
13561;DHT22;6852;51.686;5.314;2022-08-19T09:02:44;19.90;99.90
13561;DHT22;6852;51.686;5.314;2022-08-19T09:05:18;19.80;99.90
13561;DHT22;6852;51.686;5.314;2022-08-19T09:08:40;20.00;99.90
13561;DHT22;6852;51.686;5.314;2022-08-19T09:11:37;20.10;99.90
13561;DHT22;6852;51.686;5.314;2022-08-19T09:14:18;20.20;99.90
13561;DHT22;6852;51.686;5.314;2022-08-19T09:17:11;20.00;99.90
13561;DHT22;6852;51.686;5.314;2022-08-19T09:19:52;20.00;99.90
13561;DHT22;6852;51.686;5.314;2022-08-19T09:22:20;20.00;99.90
13561;DHT22;6852;51.686;5.314;2022-08-19T09:24:53;19.90;99.90
13561;DHT22;6852;51.686;5.314;2022-08-19T09:27:21;19.90;99.90
13561;DHT22;6852;51.686;5.314;2022-08-19T09:30:10;19.80;99.90
13561;DHT22;6852;51.686;5.314;2022-08-19T09:32:38;20.00;99.90
13561;DHT22;6852;51.686;5.314;2022-08-19T09:35:09;20.10;99.90
13561;DHT22;6852;51.686;5.314;2022-08-19T09:37:36;20.20;99.90
13561;DHT22;6852;51.686;5.314;2022-08-19T09:40:04;20.10;99.90
13561;DHT22;6852;51.686;5.314;2022-08-19T09:42:31;20.10;99.90
13561;DHT22;6852;51.686;5.314;2022-08-19T09:45:01;20.00;99.90
13561;DHT22;6852;51.686;5.314;2022-08-19T09:47:36;20.00;99.90
13561;DHT22;6852;51.686;5.314;2022-08-19T09:50:08;20.00;99.90
13561;DHT22;6852;51.686;5.314;2022-08-19T09:52:36;20.10;99.90
13561;DHT22;6852;51.686;5.314;2022-08-19T09:55:09;20.00;99.90
13561;DHT22;6852;51.686;5.314;2022-08-19T09:57:37;20.00;99.90
13561;DHT22;6852;51.686;5.314;2022-08-19T10:00:06;20.00;99.90
13561;DHT22;6852;51.686;5.314;2022-08-19T10:02:34;20.00;99.90
13561;DHT22;6852;51.686;5.314;2022-08-19T10:05:01;20.10;99.90
13561;DHT22;6852;51.686;5.314;2022-08-19T10:07:52;20.30;99.90
13561;DHT22;6852;51.686;5.314;2022-08-19T10:10:22;20.30;99.90
13561;DHT22;6852;51.686;5.314;2022-08-19T10:12:50;20.40;99.90
13561;DHT22;6852;51.686;5.314;2022-08-19T10:15:17;20.60;99.90
13561;DHT22;6852;51.686;5.314;2022-08-19T10:17:55;20.70;99.90
13561;DHT22;6852;51.686;5.314;2022-08-19T10:20:24;20.60;99.90
13561;DHT22;6852;51.686;5.314;2022-08-19T10:22:51;20.60;99.90
13561;DHT22;6852;51.686;5.314;2022-08-19T10:25:19;20.60;99.90
13561;DHT22;6852;51.686;5.314;2022-08-19T10:27:45;20.70;99.90
13561;DHT22;6852;51.686;5.314;2022-08-19T10:30:21;20.90;4.10
13561;DHT22;6852;51.686;5.314;2022-08-19T10:32:50;20.80;1.00
13561;DHT22;6852;51.686;5.314;2022-08-19T10:35:18;20.90;99.90
13561;DHT22;6852;51.686;5.314;2022-08-19T10:37:47;20.90;1.00
13561;DHT22;6852;51.686;5.314;2022-08-19T10:40:27;21.00;99.90
13561;DHT22;6852;51.686;5.314;2022-08-19T10:42:54;21.00;1.00
13561;DHT22;6852;51.686;5.314;2022-08-19T10:45:23;21.20;99.90
13561;DHT22;6852;51.686;5.314;2022-08-19T10:47:53;21.40;1.00
13561;DHT22;6852;51.686;5.314;2022-08-19T10:50:21;21.40;99.90
13561;DHT22;6852;51.686;5.314;2022-08-19T10:53:08;21.70;1.00
13561;DHT22;6852;51.686;5.314;2022-08-19T10:55:35;22.00;72.80
13561;DHT22;6852;51.686;5.314;2022-08-19T10:58:22;21.90;1.00
13561;DHT22;6852;51.686;5.314;2022-08-19T11:00:55;22.20;96.90
13561;DHT22;6852;51.686;5.314;2022-08-19T11:03:23;22.00;97.60
13561;DHT22;6852;51.686;5.314;2022-08-19T11:06:00;22.20;31.70
13561;DHT22;6852;51.686;5.314;2022-08-19T11:08:27;22.30;1.00
13561;DHT22;6852;51.686;5.314;2022-08-19T11:10:54;22.70;1.00
13561;DHT22;6852;51.686;5.314;2022-08-19T11:13:28;22.80;1.00
13561;DHT22;6852;51.686;5.314;2022-08-19T11:16:09;22.80;99.90
13561;DHT22;6852;51.686;5.314;2022-08-19T11:18:38;22.80;99.90
13561;DHT22;6852;51.686;5.314;2022-08-19T11:21:12;22.80;1.00
13561;DHT22;6852;51.686;5.314;2022-08-19T11:23:39;22.50;99.90
13561;DHT22;6852;51.686;5.314;2022-08-19T11:26:06;23.40;1.00
13561;DHT22;6852;51.686;5.314;2022-08-19T11:28:33;23.70;1.00
13561;DHT22;6852;51.686;5.314;2022-08-19T11:31:00;24.00;99.90
13561;DHT22;6852;51.686;5.314;2022-08-19T11:33:30;24.00;99.90
13561;DHT22;6852;51.686;5.314;2022-08-19T11:35:58;24.10;1.00
13561;DHT22;6852;51.686;5.314;2022-08-19T11:38:27;23.80;99.90
13561;DHT22;6852;51.686;5.314;2022-08-19T11:40:58;24.50;1.00
13561;DHT22;6852;51.686;5.314;2022-08-19T11:43:26;24.80;1.00
13561;DHT22;6852;51.686;5.314;2022-08-19T11:45:54;25.70;99.90
13561;DHT22;6852;51.686;5.314;2022-08-19T11:48:21;26.10;35.40
13561;DHT22;6852;51.686;5.314;2022-08-19T11:50:49;25.70;99.90
13561;DHT22;6852;51.686;5.314;2022-08-19T11:53:18;25.50;1.00
13561;DHT22;6852;51.686;5.314;2022-08-19T11:55:52;25.30;99.90
13561;DHT22;6852;51.686;5.314;2022-08-19T11:58:23;24.60;1.00
13561;DHT22;6852;51.686;5.314;2022-08-19T12:00:52;24.40;1.00
13561;DHT22;6852;51.686;5.314;2022-08-19T12:03:19;24.50;1.00
13561;DHT22;6852;51.686;5.314;2022-08-19T12:05:46;24.40;1.00
13561;DHT22;6852;51.686;5.314;2022-08-19T12:08:13;24.40;1.00
13561;DHT22;6852;51.686;5.314;2022-08-19T12:10:47;24.30;1.00
13561;DHT22;6852;51.686;5.314;2022-08-19T12:13:14;24.20;1.00
13561;DHT22;6852;51.686;5.314;2022-08-19T12:15:46;24.00;1.00
13561;DHT22;6852;51.686;5.314;2022-08-19T12:18:14;23.80;1.00
13561;DHT22;6852;51.686;5.314;2022-08-19T12:20:42;23.60;1.00
13561;DHT22;6852;51.686;5.314;2022-08-19T12:23:14;23.70;99.90
13561;DHT22;6852;51.686;5.314;2022-08-19T12:25:47;23.70;99.90
13561;DHT22;6852;51.686;5.314;2022-08-19T12:28:23;23.50;99.90
13561;DHT22;6852;51.686;5.314;2022-08-19T12:30:51;23.40;99.90
13561;DHT22;6852;51.686;5.314;2022-08-19T12:33:19;23.30;1.00
13561;DHT22;6852;51.686;5.314;2022-08-19T12:35:53;23.40;1.00
13561;DHT22;6852;51.686;5.314;2022-08-19T12:38:20;23.30;1.00
13561;DHT22;6852;51.686;5.314;2022-08-19T12:40:50;23.20;1.00
13561;DHT22;6852;51.686;5.314;2022-08-19T12:43:24;23.10;1.00
13561;DHT22;6852;51.686;5.314;2022-08-19T12:45:50;23.10;34.90
13561;DHT22;6852;51.686;5.314;2022-08-19T12:48:17;23.00;1.00
13561;DHT22;6852;51.686;5.314;2022-08-19T12:51:06;23.10;1.00
13561;DHT22;6852;51.686;5.314;2022-08-19T12:53:33;23.10;1.00
13561;DHT22;6852;51.686;5.314;2022-08-19T12:56:05;23.30;1.00
13561;DHT22;6852;51.686;5.314;2022-08-19T12:58:38;23.20;1.00
13561;DHT22;6852;51.686;5.314;2022-08-19T13:01:10;23.00;1.00
13561;DHT22;6852;51.686;5.314;2022-08-19T13:03:38;23.00;99.90
13561;DHT22;6852;51.686;5.314;2022-08-19T13:06:07;22.80;1.00
13561;DHT22;6852;51.686;5.314;2022-08-19T13:08:34;22.80;1.00
13561;DHT22;6852;51.686;5.314;2022-08-19T13:11:17;22.70;99.90
13561;DHT22;6852;51.686;5.314;2022-08-19T13:13:46;22.60;1.00
13561;DHT22;6852;51.686;5.314;2022-08-19T13:16:14;22.50;99.90
13561;DHT22;6852;51.686;5.314;2022-08-19T13:18:44;22.60;1.00
13561;DHT22;6852;51.686;5.314;2022-08-19T13:21:13;22.30;1.00
13561;DHT22;6852;51.686;5.314;2022-08-19T13:23:40;22.40;28.50
13561;DHT22;6852;51.686;5.314;2022-08-19T13:26:09;22.30;99.90
13561;DHT22;6852;51.686;5.314;2022-08-19T13:28:37;22.40;99.90
13561;DHT22;6852;51.686;5.314;2022-08-19T13:31:24;22.40;1.00
13561;DHT22;6852;51.686;5.314;2022-08-19T13:34:10;22.40;1.00
13561;DHT22;6852;51.686;5.314;2022-08-19T13:36:38;22.40;99.90
13561;DHT22;6852;51.686;5.314;2022-08-19T13:39:06;22.70;1.00
13561;DHT22;6852;51.686;5.314;2022-08-19T13:41:34;22.90;1.00
13561;DHT22;6852;51.686;5.314;2022-08-19T13:44:02;23.30;1.00
13561;DHT22;6852;51.686;5.314;2022-08-19T13:46:29;23.30;1.00
13561;DHT22;6852;51.686;5.314;2022-08-19T13:48:56;23.40;99.90
13561;DHT22;6852;51.686;5.314;2022-08-19T13:51:24;23.80;99.90
13561;DHT22;6852;51.686;5.314;2022-08-19T13:53:50;23.90;1.00
13561;DHT22;6852;51.686;5.314;2022-08-19T13:56:19;24.00;51.00
13561;DHT22;6852;51.686;5.314;2022-08-19T13:58:51;24.10;1.00
13561;DHT22;6852;51.686;5.314;2022-08-19T14:01:20;24.00;1.00
13561;DHT22;6852;51.686;5.314;2022-08-19T14:03:50;24.00;1.00
13561;DHT22;6852;51.686;5.314;2022-08-19T14:06:17;23.80;1.00
13561;DHT22;6852;51.686;5.314;2022-08-19T14:08:44;24.40;1.00
13561;DHT22;6852;51.686;5.314;2022-08-19T14:11:12;24.40;1.00
13561;DHT22;6852;51.686;5.314;2022-08-19T14:13:39;24.60;99.90
13561;DHT22;6852;51.686;5.314;2022-08-19T14:16:08;24.60;99.90
13561;DHT22;6852;51.686;5.314;2022-08-19T14:18:35;24.00;1.00
13561;DHT22;6852;51.686;5.314;2022-08-19T14:21:02;23.70;1.00
13561;DHT22;6852;51.686;5.314;2022-08-19T14:23:32;23.50;99.90
13561;DHT22;6852;51.686;5.314;2022-08-19T14:26:11;23.50;99.90
13561;DHT22;6852;51.686;5.314;2022-08-19T14:28:39;23.30;1.00
13561;DHT22;6852;51.686;5.314;2022-08-19T14:31:13;23.60;1.00
13561;DHT22;6852;51.686;5.314;2022-08-19T14:33:43;23.80;1.00
13561;DHT22;6852;51.686;5.314;2022-08-19T14:36:09;24.00;1.00
13561;DHT22;6852;51.686;5.314;2022-08-19T14:38:36;24.00;99.90
13561;DHT22;6852;51.686;5.314;2022-08-19T14:41:15;24.50;64.20
13561;DHT22;6852;51.686;5.314;2022-08-19T14:43:44;24.80;99.90
13561;DHT22;6852;51.686;5.314;2022-08-19T14:46:16;24.90;1.00
13561;DHT22;6852;51.686;5.314;2022-08-19T14:48:43;24.50;1.00
13561;DHT22;6852;51.686;5.314;2022-08-19T14:51:11;24.30;1.00
13561;DHT22;6852;51.686;5.314;2022-08-19T14:53:38;24.20;1.00
13561;DHT22;6852;51.686;5.314;2022-08-19T14:56:10;24.10;1.00
13561;DHT22;6852;51.686;5.314;2022-08-19T14:58:38;24.10;1.00
13561;DHT22;6852;51.686;5.314;2022-08-19T15:01:07;24.20;1.00
13561;DHT22;6852;51.686;5.314;2022-08-19T15:03:35;24.10;1.00
13561;DHT22;6852;51.686;5.314;2022-08-19T15:06:04;24.20;1.00
13561;DHT22;6852;51.686;5.314;2022-08-19T15:08:34;24.00;1.00
13561;DHT22;6852;51.686;5.314;2022-08-19T15:11:02;24.00;1.00
13561;DHT22;6852;51.686;5.314;2022-08-19T15:13:29;24.00;35.10
13561;DHT22;6852;51.686;5.314;2022-08-19T15:15:56;23.90;99.90
13561;DHT22;6852;51.686;5.314;2022-08-19T15:18:24;23.70;1.00
13561;DHT22;6852;51.686;5.314;2022-08-19T15:20:51;23.50;1.00
13561;DHT22;6852;51.686;5.314;2022-08-19T15:23:19;23.50;99.90
13561;DHT22;6852;51.686;5.314;2022-08-19T15:25:46;23.30;1.00
13561;DHT22;6852;51.686;5.314;2022-08-19T15:28:13;23.40;1.00
13561;DHT22;6852;51.686;5.314;2022-08-19T15:30:42;23.30;1.00
13561;DHT22;6852;51.686;5.314;2022-08-19T15:33:11;23.30;1.00
13561;DHT22;6852;51.686;5.314;2022-08-19T15:35:42;23.10;1.00
13561;DHT22;6852;51.686;5.314;2022-08-19T15:38:09;23.10;1.00
13561;DHT22;6852;51.686;5.314;2022-08-19T15:40:37;23.00;99.90
13561;DHT22;6852;51.686;5.314;2022-08-19T15:43:04;22.90;1.00
13561;DHT22;6852;51.686;5.314;2022-08-19T15:45:30;22.80;99.90
13561;DHT22;6852;51.686;5.314;2022-08-19T15:48:02;22.60;99.90
13561;DHT22;6852;51.686;5.314;2022-08-19T15:50:30;22.50;99.90
13561;DHT22;6852;51.686;5.314;2022-08-19T15:53:00;22.70;99.90
13561;DHT22;6852;51.686;5.314;2022-08-19T15:55:30;22.60;99.90
13561;DHT22;6852;51.686;5.314;2022-08-19T15:58:01;22.50;99.90
13561;DHT22;6852;51.686;5.314;2022-08-19T16:00:59;22.60;99.90
13561;DHT22;6852;51.686;5.314;2022-08-19T16:03:47;22.60;99.90
13561;DHT22;6852;51.686;5.314;2022-08-19T16:06:52;22.50;99.90
13561;DHT22;6852;51.686;5.314;2022-08-19T16:09:21;22.40;99.90
13561;DHT22;6852;51.686;5.314;2022-08-19T16:11:54;22.30;99.90
13561;DHT22;6852;51.686;5.314;2022-08-19T16:14:28;22.40;99.90
13561;DHT22;6852;51.686;5.314;2022-08-19T16:16:55;22.30;99.90
13561;DHT22;6852;51.686;5.314;2022-08-19T16:19:23;22.50;99.90
13561;DHT22;6852;51.686;5.314;2022-08-19T16:21:53;22.20;99.90
13561;DHT22;6852;51.686;5.314;2022-08-19T16:24:22;22.20;99.90